sensor_id;sensor_type;location;lat;lon;timestamp;P1;durP1;ratioP1;P2;durP2;ratioP2
80850;SDS011;70268;50.292;6.666;2023-09-30T00:01:55;5.10;;;1.48;;
80850;SDS011;70268;50.292;6.666;2023-09-30T00:04:24;3.13;;;0.90;;
80850;SDS011;70268;50.292;6.666;2023-09-30T00:06:54;4.25;;;1.10;;
80850;SDS011;70268;50.292;6.666;2023-09-30T00:09:23;3.90;;;2.08;;
80850;SDS011;70268;50.292;6.666;2023-09-30T00:11:52;3.05;;;1.20;;
80850;SDS011;70268;50.292;6.666;2023-09-30T00:14:23;3.63;;;1.00;;
80850;SDS011;70268;50.292;6.666;2023-09-30T00:16:52;2.55;;;1.23;;
80850;SDS011;70268;50.292;6.666;2023-09-30T00:19:21;4.28;;;1.25;;
80850;SDS011;70268;50.292;6.666;2023-09-30T00:21:50;2.20;;;1.50;;
80850;SDS011;70268;50.292;6.666;2023-09-30T00:24:19;4.10;;;1.13;;
80850;SDS011;70268;50.292;6.666;2023-09-30T00:26:48;3.83;;;1.33;;
80850;SDS011;70268;50.292;6.666;2023-09-30T00:29:17;10.60;;;1.55;;
80850;SDS011;70268;50.292;6.666;2023-09-30T00:31:48;2.85;;;0.90;;
80850;SDS011;70268;50.292;6.666;2023-09-30T00:34:17;3.97;;;1.00;;
80850;SDS011;70268;50.292;6.666;2023-09-30T00:36:46;2.10;;;1.25;;
80850;SDS011;70268;50.292;6.666;2023-09-30T00:39:15;2.90;;;1.10;;
80850;SDS011;70268;50.292;6.666;2023-09-30T00:41:44;2.10;;;1.30;;
80850;SDS011;70268;50.292;6.666;2023-09-30T00:44:13;5.18;;;1.00;;
80850;SDS011;70268;50.292;6.666;2023-09-30T00:46:42;5.07;;;2.63;;
80850;SDS011;70268;50.292;6.666;2023-09-30T00:49:12;2.13;;;1.05;;
80850;SDS011;70268;50.292;6.666;2023-09-30T00:51:44;2.03;;;0.93;;
80850;SDS011;70268;50.292;6.666;2023-09-30T00:54:15;1.70;;;1.20;;
80850;SDS011;70268;50.292;6.666;2023-09-30T00:56:45;6.38;;;1.63;;
80850;SDS011;70268;50.292;6.666;2023-09-30T00:59:15;1.73;;;0.95;;
80850;SDS011;70268;50.292;6.666;2023-09-30T01:01:45;1.60;;;0.80;;
80850;SDS011;70268;50.292;6.666;2023-09-30T01:04:15;6.25;;;1.30;;
80850;SDS011;70268;50.292;6.666;2023-09-30T01:06:45;2.45;;;1.13;;
80850;SDS011;70268;50.292;6.666;2023-09-30T01:09:14;2.50;;;1.50;;
80850;SDS011;70268;50.292;6.666;2023-09-30T01:11:43;2.65;;;1.20;;
80850;SDS011;70268;50.292;6.666;2023-09-30T01:14:25;3.00;;;1.15;;
80850;SDS011;70268;50.292;6.666;2023-09-30T01:16:55;2.15;;;1.42;;
80850;SDS011;70268;50.292;6.666;2023-09-30T01:19:26;4.35;;;1.15;;
80850;SDS011;70268;50.292;6.666;2023-09-30T01:21:57;1.48;;;1.00;;
80850;SDS011;70268;50.292;6.666;2023-09-30T01:24:37;1.52;;;0.80;;
80850;SDS011;70268;50.292;6.666;2023-09-30T01:27:08;3.58;;;1.35;;
80850;SDS011;70268;50.292;6.666;2023-09-30T01:29:37;1.42;;;0.90;;
80850;SDS011;70268;50.292;6.666;2023-09-30T01:32:06;3.40;;;1.00;;
80850;SDS011;70268;50.292;6.666;2023-09-30T01:34:36;2.03;;;0.70;;
80850;SDS011;70268;50.292;6.666;2023-09-30T01:37:07;1.42;;;0.98;;
80850;SDS011;70268;50.292;6.666;2023-09-30T01:39:36;2.30;;;1.13;;
80850;SDS011;70268;50.292;6.666;2023-09-30T01:42:05;2.75;;;0.90;;
80850;SDS011;70268;50.292;6.666;2023-09-30T01:44:34;2.13;;;1.10;;
80850;SDS011;70268;50.292;6.666;2023-09-30T01:47:02;3.42;;;0.95;;
80850;SDS011;70268;50.292;6.666;2023-09-30T01:49:31;1.88;;;0.85;;
80850;SDS011;70268;50.292;6.666;2023-09-30T01:52:00;2.17;;;0.90;;
80850;SDS011;70268;50.292;6.666;2023-09-30T01:54:31;3.65;;;1.15;;
80850;SDS011;70268;50.292;6.666;2023-09-30T01:57:00;1.75;;;0.95;;
80850;SDS011;70268;50.292;6.666;2023-09-30T01:59:31;2.70;;;1.48;;
80850;SDS011;70268;50.292;6.666;2023-09-30T02:02:00;1.58;;;1.17;;
80850;SDS011;70268;50.292;6.666;2023-09-30T02:04:30;1.95;;;1.33;;
80850;SDS011;70268;50.292;6.666;2023-09-30T02:06:59;2.35;;;1.20;;
80850;SDS011;70268;50.292;6.666;2023-09-30T02:09:27;5.78;;;0.98;;
80850;SDS011;70268;50.292;6.666;2023-09-30T02:11:58;2.45;;;1.35;;
80850;SDS011;70268;50.292;6.666;2023-09-30T02:14:27;2.88;;;1.08;;
80850;SDS011;70268;50.292;6.666;2023-09-30T02:16:56;2.05;;;0.88;;
80850;SDS011;70268;50.292;6.666;2023-09-30T02:19:25;1.52;;;0.80;;
80850;SDS011;70268;50.292;6.666;2023-09-30T02:21:57;5.70;;;1.33;;
80850;SDS011;70268;50.292;6.666;2023-09-30T02:24:26;2.47;;;0.88;;
80850;SDS011;70268;50.292;6.666;2023-09-30T02:26:55;2.47;;;1.20;;
80850;SDS011;70268;50.292;6.666;2023-09-30T02:29:25;2.78;;;1.65;;
80850;SDS011;70268;50.292;6.666;2023-09-30T02:31:54;4.50;;;1.13;;
80850;SDS011;70268;50.292;6.666;2023-09-30T02:34:23;4.28;;;1.10;;
80850;SDS011;70268;50.292;6.666;2023-09-30T02:36:51;2.40;;;1.00;;
80850;SDS011;70268;50.292;6.666;2023-09-30T02:39:22;2.90;;;1.13;;
80850;SDS011;70268;50.292;6.666;2023-09-30T02:41:52;5.40;;;1.48;;
80850;SDS011;70268;50.292;6.666;2023-09-30T02:44:21;1.85;;;0.90;;
80850;SDS011;70268;50.292;6.666;2023-09-30T02:46:51;3.08;;;1.15;;
80850;SDS011;70268;50.292;6.666;2023-09-30T02:49:21;2.00;;;1.23;;
80850;SDS011;70268;50.292;6.666;2023-09-30T02:51:49;2.33;;;1.00;;
80850;SDS011;70268;50.292;6.666;2023-09-30T02:54:18;2.30;;;1.08;;
80850;SDS011;70268;50.292;6.666;2023-09-30T02:56:47;2.42;;;1.20;;
80850;SDS011;70268;50.292;6.666;2023-09-30T02:59:16;2.05;;;1.05;;
80850;SDS011;70268;50.292;6.666;2023-09-30T03:01:45;3.38;;;1.33;;
80850;SDS011;70268;50.292;6.666;2023-09-30T03:04:16;4.30;;;1.75;;
80850;SDS011;70268;50.292;6.666;2023-09-30T03:06:46;4.68;;;1.40;;
80850;SDS011;70268;50.292;6.666;2023-09-30T03:09:16;3.58;;;1.50;;
80850;SDS011;70268;50.292;6.666;2023-09-30T03:11:45;5.22;;;1.00;;
80850;SDS011;70268;50.292;6.666;2023-09-30T03:14:14;1.38;;;1.05;;
80850;SDS011;70268;50.292;6.666;2023-09-30T03:16:42;3.63;;;1.15;;
80850;SDS011;70268;50.292;6.666;2023-09-30T03:19:11;2.08;;;1.20;;
80850;SDS011;70268;50.292;6.666;2023-09-30T03:21:45;4.95;;;1.92;;
80850;SDS011;70268;50.292;6.666;2023-09-30T03:24:14;5.15;;;1.75;;
80850;SDS011;70268;50.292;6.666;2023-09-30T03:26:42;1.58;;;1.35;;
80850;SDS011;70268;50.292;6.666;2023-09-30T03:29:11;4.55;;;1.40;;
80850;SDS011;70268;50.292;6.666;2023-09-30T03:31:41;3.70;;;1.25;;
80850;SDS011;70268;50.292;6.666;2023-09-30T03:34:09;3.53;;;1.33;;
80850;SDS011;70268;50.292;6.666;2023-09-30T03:36:38;4.03;;;1.50;;
80850;SDS011;70268;50.292;6.666;2023-09-30T03:39:09;3.88;;;1.27;;
80850;SDS011;70268;50.292;6.666;2023-09-30T03:41:42;1.95;;;1.13;;
80850;SDS011;70268;50.292;6.666;2023-09-30T03:44:11;3.42;;;1.20;;
80850;SDS011;70268;50.292;6.666;2023-09-30T03:46:40;4.15;;;1.50;;
80850;SDS011;70268;50.292;6.666;2023-09-30T03:49:08;2.90;;;1.05;;
80850;SDS011;70268;50.292;6.666;2023-09-30T03:51:37;2.15;;;1.20;;
80850;SDS011;70268;50.292;6.666;2023-09-30T03:54:06;2.15;;;1.00;;
80850;SDS011;70268;50.292;6.666;2023-09-30T03:56:37;5.03;;;1.13;;
80850;SDS011;70268;50.292;6.666;2023-09-30T03:59:06;2.13;;;1.30;;
80850;SDS011;70268;50.292;6.666;2023-09-30T04:01:36;2.35;;;0.95;;
80850;SDS011;70268;50.292;6.666;2023-09-30T04:04:07;3.67;;;1.23;;
80850;SDS011;70268;50.292;6.666;2023-09-30T04:06:37;2.45;;;1.40;;
80850;SDS011;70268;50.292;6.666;2023-09-30T04:09:06;5.32;;;1.50;;
80850;SDS011;70268;50.292;6.666;2023-09-30T04:11:39;5.82;;;1.60;;
80850;SDS011;70268;50.292;6.666;2023-09-30T04:14:09;2.30;;;1.25;;
80850;SDS011;70268;50.292;6.666;2023-09-30T04:16:38;6.03;;;1.48;;
80850;SDS011;70268;50.292;6.666;2023-09-30T04:19:08;4.85;;;1.17;;
80850;SDS011;70268;50.292;6.666;2023-09-30T04:21:37;3.60;;;1.13;;
80850;SDS011;70268;50.292;6.666;2023-09-30T04:24:06;1.30;;;0.70;;
80850;SDS011;70268;50.292;6.666;2023-09-30T04:26:36;2.28;;;1.20;;
80850;SDS011;70268;50.292;6.666;2023-09-30T04:29:06;2.72;;;0.90;;
80850;SDS011;70268;50.292;6.666;2023-09-30T04:31:37;5.60;;;1.30;;
80850;SDS011;70268;50.292;6.666;2023-09-30T04:34:09;6.38;;;1.10;;
80850;SDS011;70268;50.292;6.666;2023-09-30T04:36:37;2.50;;;1.20;;
80850;SDS011;70268;50.292;6.666;2023-09-30T04:39:06;2.78;;;0.95;;
80850;SDS011;70268;50.292;6.666;2023-09-30T04:41:35;3.17;;;1.00;;
80850;SDS011;70268;50.292;6.666;2023-09-30T04:44:04;3.78;;;1.23;;
80850;SDS011;70268;50.292;6.666;2023-09-30T04:46:35;4.05;;;1.25;;
80850;SDS011;70268;50.292;6.666;2023-09-30T04:49:07;2.85;;;1.58;;
80850;SDS011;70268;50.292;6.666;2023-09-30T04:51:36;2.60;;;1.42;;
80850;SDS011;70268;50.292;6.666;2023-09-30T04:54:06;5.38;;;0.90;;
80850;SDS011;70268;50.292;6.666;2023-09-30T04:56:36;5.93;;;1.23;;
80850;SDS011;70268;50.292;6.666;2023-09-30T04:59:05;3.25;;;1.20;;
80850;SDS011;70268;50.292;6.666;2023-09-30T05:01:36;1.63;;;1.10;;
80850;SDS011;70268;50.292;6.666;2023-09-30T05:04:04;4.45;;;1.20;;
80850;SDS011;70268;50.292;6.666;2023-09-30T05:06:34;3.08;;;1.17;;
80850;SDS011;70268;50.292;6.666;2023-09-30T05:09:03;2.28;;;1.30;;
80850;SDS011;70268;50.292;6.666;2023-09-30T05:11:34;2.05;;;0.98;;
80850;SDS011;70268;50.292;6.666;2023-09-30T05:14:03;1.80;;;0.90;;
80850;SDS011;70268;50.292;6.666;2023-09-30T05:16:32;4.78;;;2.00;;
80850;SDS011;70268;50.292;6.666;2023-09-30T05:19:03;4.45;;;1.20;;
80850;SDS011;70268;50.292;6.666;2023-09-30T05:21:32;5.15;;;1.17;;
80850;SDS011;70268;50.292;6.666;2023-09-30T05:24:03;6.53;;;1.70;;
80850;SDS011;70268;50.292;6.666;2023-09-30T05:26:33;12.43;;;2.22;;
80850;SDS011;70268;50.292;6.666;2023-09-30T05:29:02;7.18;;;2.08;;
80850;SDS011;70268;50.292;6.666;2023-09-30T05:31:30;17.42;;;2.13;;
80850;SDS011;70268;50.292;6.666;2023-09-30T05:33:59;8.18;;;2.22;;
80850;SDS011;70268;50.292;6.666;2023-09-30T05:36:32;4.80;;;2.08;;
80850;SDS011;70268;50.292;6.666;2023-09-30T05:39:01;6.78;;;1.92;;
80850;SDS011;70268;50.292;6.666;2023-09-30T05:41:31;9.60;;;2.35;;
80850;SDS011;70268;50.292;6.666;2023-09-30T05:44:00;7.35;;;3.40;;
80850;SDS011;70268;50.292;6.666;2023-09-30T05:46:30;7.15;;;2.70;;
80850;SDS011;70268;50.292;6.666;2023-09-30T05:48:59;7.70;;;2.70;;
80850;SDS011;70268;50.292;6.666;2023-09-30T05:51:29;4.70;;;1.77;;
80850;SDS011;70268;50.292;6.666;2023-09-30T05:53:59;7.18;;;2.22;;
80850;SDS011;70268;50.292;6.666;2023-09-30T05:56:27;8.50;;;2.15;;
80850;SDS011;70268;50.292;6.666;2023-09-30T05:58:56;4.50;;;1.65;;
80850;SDS011;70268;50.292;6.666;2023-09-30T06:01:25;5.03;;;1.77;;
80850;SDS011;70268;50.292;6.666;2023-09-30T06:03:55;8.02;;;1.50;;
80850;SDS011;70268;50.292;6.666;2023-09-30T06:06:24;6.25;;;1.30;;
80850;SDS011;70268;50.292;6.666;2023-09-30T06:08:53;3.28;;;1.50;;
80850;SDS011;70268;50.292;6.666;2023-09-30T06:11:24;7.88;;;2.03;;
80850;SDS011;70268;50.292;6.666;2023-09-30T06:13:55;9.38;;;1.92;;
80850;SDS011;70268;50.292;6.666;2023-09-30T06:16:26;4.78;;;2.38;;
80850;SDS011;70268;50.292;6.666;2023-09-30T06:18:55;3.17;;;1.70;;
80850;SDS011;70268;50.292;6.666;2023-09-30T06:21:24;6.40;;;1.85;;
80850;SDS011;70268;50.292;6.666;2023-09-30T06:23:56;2.78;;;1.50;;
80850;SDS011;70268;50.292;6.666;2023-09-30T06:26:26;2.75;;;1.65;;
80850;SDS011;70268;50.292;6.666;2023-09-30T06:28:56;5.80;;;2.55;;
80850;SDS011;70268;50.292;6.666;2023-09-30T06:31:25;6.00;;;2.70;;
80850;SDS011;70268;50.292;6.666;2023-09-30T06:33:55;11.65;;;1.63;;
80850;SDS011;70268;50.292;6.666;2023-09-30T06:36:25;5.32;;;1.50;;
80850;SDS011;70268;50.292;6.666;2023-09-30T06:38:54;5.65;;;2.25;;
80850;SDS011;70268;50.292;6.666;2023-09-30T06:41:23;2.53;;;1.35;;
80850;SDS011;70268;50.292;6.666;2023-09-30T06:43:54;1.98;;;1.60;;
80850;SDS011;70268;50.292;6.666;2023-09-30T06:46:23;7.07;;;1.70;;
80850;SDS011;70268;50.292;6.666;2023-09-30T06:48:52;2.28;;;1.35;;
80850;SDS011;70268;50.292;6.666;2023-09-30T06:51:21;6.95;;;2.08;;
80850;SDS011;70268;50.292;6.666;2023-09-30T06:53:50;2.42;;;1.52;;
80850;SDS011;70268;50.292;6.666;2023-09-30T06:56:19;6.82;;;2.40;;
80850;SDS011;70268;50.292;6.666;2023-09-30T06:58:47;3.60;;;2.22;;
80850;SDS011;70268;50.292;6.666;2023-09-30T07:01:17;2.75;;;1.42;;
80850;SDS011;70268;50.292;6.666;2023-09-30T07:03:46;4.50;;;1.35;;
80850;SDS011;70268;50.292;6.666;2023-09-30T07:06:21;4.43;;;2.13;;
80850;SDS011;70268;50.292;6.666;2023-09-30T07:08:51;3.05;;;1.48;;
80850;SDS011;70268;50.292;6.666;2023-09-30T07:11:26;4.32;;;1.63;;
80850;SDS011;70268;50.292;6.666;2023-09-30T07:13:56;1.95;;;1.15;;
80850;SDS011;70268;50.292;6.666;2023-09-30T07:16:26;2.42;;;1.50;;
80850;SDS011;70268;50.292;6.666;2023-09-30T07:18:55;2.60;;;1.38;;
80850;SDS011;70268;50.292;6.666;2023-09-30T07:21:24;2.13;;;1.45;;
80850;SDS011;70268;50.292;6.666;2023-09-30T07:23:53;2.90;;;1.45;;
80850;SDS011;70268;50.292;6.666;2023-09-30T07:26:23;1.42;;;1.00;;
80850;SDS011;70268;50.292;6.666;2023-09-30T07:28:52;5.68;;;1.30;;
80850;SDS011;70268;50.292;6.666;2023-09-30T07:31:23;4.65;;;1.00;;
80850;SDS011;70268;50.292;6.666;2023-09-30T07:33:54;2.22;;;0.98;;
80850;SDS011;70268;50.292;6.666;2023-09-30T07:36:23;3.17;;;1.13;;
80850;SDS011;70268;50.292;6.666;2023-09-30T07:38:51;1.23;;;0.88;;
80850;SDS011;70268;50.292;6.666;2023-09-30T07:41:21;3.67;;;1.25;;
80850;SDS011;70268;50.292;6.666;2023-09-30T07:43:50;0.90;;;0.60;;
80850;SDS011;70268;50.292;6.666;2023-09-30T07:46:18;1.42;;;0.95;;
80850;SDS011;70268;50.292;6.666;2023-09-30T07:48:47;1.73;;;1.10;;
80850;SDS011;70268;50.292;6.666;2023-09-30T07:51:17;1.27;;;0.90;;
80850;SDS011;70268;50.292;6.666;2023-09-30T07:53:46;1.10;;;0.85;;
80850;SDS011;70268;50.292;6.666;2023-09-30T07:56:15;1.17;;;0.70;;
80850;SDS011;70268;50.292;6.666;2023-09-30T07:58:43;1.58;;;0.90;;
80850;SDS011;70268;50.292;6.666;2023-09-30T08:01:12;1.92;;;1.05;;
80850;SDS011;70268;50.292;6.666;2023-09-30T08:03:42;2.67;;;1.30;;
80850;SDS011;70268;50.292;6.666;2023-09-30T08:06:11;2.03;;;1.25;;
80850;SDS011;70268;50.292;6.666;2023-09-30T08:08:41;3.70;;;1.52;;
80850;SDS011;70268;50.292;6.666;2023-09-30T08:11:12;3.30;;;1.00;;
80850;SDS011;70268;50.292;6.666;2023-09-30T08:13:40;3.97;;;1.25;;
80850;SDS011;70268;50.292;6.666;2023-09-30T08:16:10;3.90;;;1.63;;
80850;SDS011;70268;50.292;6.666;2023-09-30T08:18:39;2.95;;;1.85;;
80850;SDS011;70268;50.292;6.666;2023-09-30T08:21:08;3.88;;;0.95;;
80850;SDS011;70268;50.292;6.666;2023-09-30T08:23:38;2.63;;;1.10;;
80850;SDS011;70268;50.292;6.666;2023-09-30T08:26:09;1.50;;;1.05;;
80850;SDS011;70268;50.292;6.666;2023-09-30T08:28:37;2.33;;;1.13;;
80850;SDS011;70268;50.292;6.666;2023-09-30T08:31:06;2.75;;;1.40;;
80850;SDS011;70268;50.292;6.666;2023-09-30T08:33:36;5.20;;;1.38;;
80850;SDS011;70268;50.292;6.666;2023-09-30T08:36:07;5.72;;;1.63;;
80850;SDS011;70268;50.292;6.666;2023-09-30T08:38:37;4.03;;;1.40;;
80850;SDS011;70268;50.292;6.666;2023-09-30T08:41:08;4.85;;;1.63;;
80850;SDS011;70268;50.292;6.666;2023-09-30T08:43:38;4.03;;;1.60;;
80850;SDS011;70268;50.292;6.666;2023-09-30T08:46:08;3.83;;;1.55;;
80850;SDS011;70268;50.292;6.666;2023-09-30T08:48:38;5.18;;;1.20;;
80850;SDS011;70268;50.292;6.666;2023-09-30T08:51:07;1.27;;;0.98;;
80850;SDS011;70268;50.292;6.666;2023-09-30T08:53:36;1.95;;;0.93;;
80850;SDS011;70268;50.292;6.666;2023-09-30T08:56:05;4.85;;;1.00;;
80850;SDS011;70268;50.292;6.666;2023-09-30T08:58:38;1.88;;;1.00;;
80850;SDS011;70268;50.292;6.666;2023-09-30T09:01:07;1.75;;;0.82;;
80850;SDS011;70268;50.292;6.666;2023-09-30T09:03:38;2.55;;;1.35;;
80850;SDS011;70268;50.292;6.666;2023-09-30T09:06:07;2.03;;;1.50;;
80850;SDS011;70268;50.292;6.666;2023-09-30T09:08:36;3.22;;;1.33;;
80850;SDS011;70268;50.292;6.666;2023-09-30T09:11:05;4.97;;;1.60;;
80850;SDS011;70268;50.292;6.666;2023-09-30T09:13:46;3.42;;;1.63;;
80850;SDS011;70268;50.292;6.666;2023-09-30T09:16:17;4.70;;;1.80;;
80850;SDS011;70268;50.292;6.666;2023-09-30T09:18:47;2.85;;;1.55;;
80850;SDS011;70268;50.292;6.666;2023-09-30T09:21:16;3.65;;;1.75;;
80850;SDS011;70268;50.292;6.666;2023-09-30T09:23:48;5.07;;;1.33;;
80850;SDS011;70268;50.292;6.666;2023-09-30T09:26:23;2.53;;;1.50;;
80850;SDS011;70268;50.292;6.666;2023-09-30T09:28:57;4.05;;;1.65;;
80850;SDS011;70268;50.292;6.666;2023-09-30T09:31:27;4.47;;;1.70;;
80850;SDS011;70268;50.292;6.666;2023-09-30T09:33:57;5.53;;;1.80;;
80850;SDS011;70268;50.292;6.666;2023-09-30T09:36:37;3.35;;;1.67;;
80850;SDS011;70268;50.292;6.666;2023-09-30T09:39:07;2.75;;;1.33;;
80850;SDS011;70268;50.292;6.666;2023-09-30T09:41:39;3.92;;;1.50;;
80850;SDS011;70268;50.292;6.666;2023-09-30T09:44:20;5.55;;;1.52;;
80850;SDS011;70268;50.292;6.666;2023-09-30T09:46:50;2.70;;;1.48;;
80850;SDS011;70268;50.292;6.666;2023-09-30T09:49:19;4.88;;;2.05;;
80850;SDS011;70268;50.292;6.666;2023-09-30T09:51:50;2.67;;;1.45;;
80850;SDS011;70268;50.292;6.666;2023-09-30T09:54:21;5.05;;;1.83;;
80850;SDS011;70268;50.292;6.666;2023-09-30T09:56:51;4.95;;;2.35;;
80850;SDS011;70268;50.292;6.666;2023-09-30T09:59:25;3.03;;;1.95;;
80850;SDS011;70268;50.292;6.666;2023-09-30T10:01:54;3.80;;;1.48;;
80850;SDS011;70268;50.292;6.666;2023-09-30T10:04:23;2.80;;;1.70;;
80850;SDS011;70268;50.292;6.666;2023-09-30T10:06:52;5.25;;;1.90;;
80850;SDS011;70268;50.292;6.666;2023-09-30T10:09:23;7.93;;;2.15;;
80850;SDS011;70268;50.292;6.666;2023-09-30T10:11:57;9.57;;;3.22;;
80850;SDS011;70268;50.292;6.666;2023-09-30T10:14:31;6.45;;;3.08;;
80850;SDS011;70268;50.292;6.666;2023-09-30T10:17:01;6.63;;;3.40;;
80850;SDS011;70268;50.292;6.666;2023-09-30T10:19:31;7.35;;;3.03;;
80850;SDS011;70268;50.292;6.666;2023-09-30T10:24:55;5.28;;;3.17;;
80850;SDS011;70268;50.292;6.666;2023-09-30T10:27:28;5.43;;;2.65;;
80850;SDS011;70268;50.292;6.666;2023-09-30T10:30:05;5.70;;;2.78;;
80850;SDS011;70268;50.292;6.666;2023-09-30T10:35:45;9.35;;;3.08;;
80850;SDS011;70268;50.292;6.666;2023-09-30T10:41:10;4.97;;;2.63;;
80850;SDS011;70268;50.292;6.666;2023-09-30T10:43:40;5.65;;;2.78;;
80850;SDS011;70268;50.292;6.666;2023-09-30T10:49:29;5.82;;;3.08;;
80850;SDS011;70268;50.292;6.666;2023-09-30T10:52:03;6.70;;;2.40;;
80850;SDS011;70268;50.292;6.666;2023-09-30T10:54:32;12.00;;;3.10;;
80850;SDS011;70268;50.292;6.666;2023-09-30T10:57:01;6.93;;;2.78;;
80850;SDS011;70268;50.292;6.666;2023-09-30T10:59:31;5.28;;;2.88;;
80850;SDS011;70268;50.292;6.666;2023-09-30T11:02:05;7.30;;;2.55;;
80850;SDS011;70268;50.292;6.666;2023-09-30T11:04:47;4.32;;;2.70;;
80850;SDS011;70268;50.292;6.666;2023-09-30T11:07:19;9.98;;;2.90;;
80850;SDS011;70268;50.292;6.666;2023-09-30T11:09:53;8.52;;;2.85;;
80850;SDS011;70268;50.292;6.666;2023-09-30T11:12:23;7.35;;;3.33;;
80850;SDS011;70268;50.292;6.666;2023-09-30T11:14:58;5.63;;;2.40;;
80850;SDS011;70268;50.292;6.666;2023-09-30T11:17:30;8.55;;;3.13;;
80850;SDS011;70268;50.292;6.666;2023-09-30T11:19:59;4.57;;;2.88;;
80850;SDS011;70268;50.292;6.666;2023-09-30T11:22:27;5.32;;;2.55;;
80850;SDS011;70268;50.292;6.666;2023-09-30T11:24:57;4.78;;;2.65;;
80850;SDS011;70268;50.292;6.666;2023-09-30T11:27:26;4.43;;;2.05;;
80850;SDS011;70268;50.292;6.666;2023-09-30T11:29:55;8.07;;;2.83;;
80850;SDS011;70268;50.292;6.666;2023-09-30T11:32:25;9.40;;;3.20;;
80850;SDS011;70268;50.292;6.666;2023-09-30T11:34:57;5.57;;;2.40;;
80850;SDS011;70268;50.292;6.666;2023-09-30T11:37:30;8.75;;;3.08;;
80850;SDS011;70268;50.292;6.666;2023-09-30T11:40:11;6.82;;;3.13;;
80850;SDS011;70268;50.292;6.666;2023-09-30T11:42:41;6.68;;;3.00;;
80850;SDS011;70268;50.292;6.666;2023-09-30T11:45:18;8.82;;;3.63;;
80850;SDS011;70268;50.292;6.666;2023-09-30T11:47:48;7.72;;;3.03;;
80850;SDS011;70268;50.292;6.666;2023-09-30T11:50:18;10.25;;;2.70;;
80850;SDS011;70268;50.292;6.666;2023-09-30T11:52:47;5.72;;;2.60;;
80850;SDS011;70268;50.292;6.666;2023-09-30T11:55:16;4.72;;;2.50;;
80850;SDS011;70268;50.292;6.666;2023-09-30T11:57:47;4.47;;;1.90;;
80850;SDS011;70268;50.292;6.666;2023-09-30T12:00:17;8.63;;;3.00;;
80850;SDS011;70268;50.292;6.666;2023-09-30T12:02:46;6.40;;;2.80;;
80850;SDS011;70268;50.292;6.666;2023-09-30T12:05:15;5.30;;;2.00;;
80850;SDS011;70268;50.292;6.666;2023-09-30T12:07:45;5.32;;;2.35;;
80850;SDS011;70268;50.292;6.666;2023-09-30T12:10:14;6.55;;;2.28;;
80850;SDS011;70268;50.292;6.666;2023-09-30T12:12:43;5.65;;;2.45;;
80850;SDS011;70268;50.292;6.666;2023-09-30T12:15:11;6.28;;;2.58;;
80850;SDS011;70268;50.292;6.666;2023-09-30T12:17:40;4.90;;;2.20;;
80850;SDS011;70268;50.292;6.666;2023-09-30T12:20:09;4.47;;;1.98;;
80850;SDS011;70268;50.292;6.666;2023-09-30T12:22:41;6.60;;;2.40;;
80850;SDS011;70268;50.292;6.666;2023-09-30T12:25:11;8.68;;;2.08;;
80850;SDS011;70268;50.292;6.666;2023-09-30T12:27:40;4.22;;;2.17;;
80850;SDS011;70268;50.292;6.666;2023-09-30T12:30:09;7.13;;;2.30;;
80850;SDS011;70268;50.292;6.666;2023-09-30T12:32:40;5.60;;;2.55;;
80850;SDS011;70268;50.292;6.666;2023-09-30T12:35:09;5.20;;;2.38;;
80850;SDS011;70268;50.292;6.666;2023-09-30T12:37:39;4.90;;;2.97;;
80850;SDS011;70268;50.292;6.666;2023-09-30T12:40:10;5.07;;;2.47;;
80850;SDS011;70268;50.292;6.666;2023-09-30T12:45:12;4.85;;;2.20;;
80850;SDS011;70268;50.292;6.666;2023-09-30T12:47:41;5.80;;;2.60;;
80850;SDS011;70268;50.292;6.666;2023-09-30T12:50:10;8.13;;;2.88;;
80850;SDS011;70268;50.292;6.666;2023-09-30T12:52:39;7.05;;;2.03;;
80850;SDS011;70268;50.292;6.666;2023-09-30T12:55:08;5.45;;;2.20;;
80850;SDS011;70268;50.292;6.666;2023-09-30T12:57:39;5.60;;;2.58;;
80850;SDS011;70268;50.292;6.666;2023-09-30T13:00:09;9.45;;;3.50;;
80850;SDS011;70268;50.292;6.666;2023-09-30T13:02:38;6.18;;;2.85;;
80850;SDS011;70268;50.292;6.666;2023-09-30T13:05:07;4.60;;;2.58;;
80850;SDS011;70268;50.292;6.666;2023-09-30T13:07:36;9.77;;;3.25;;
80850;SDS011;70268;50.292;6.666;2023-09-30T13:10:06;7.25;;;2.83;;
80850;SDS011;70268;50.292;6.666;2023-09-30T13:12:35;5.72;;;2.10;;
80850;SDS011;70268;50.292;6.666;2023-09-30T13:15:06;4.28;;;2.47;;
80850;SDS011;70268;50.292;6.666;2023-09-30T13:17:35;4.25;;;2.35;;
80850;SDS011;70268;50.292;6.666;2023-09-30T13:20:05;8.45;;;2.50;;
80850;SDS011;70268;50.292;6.666;2023-09-30T13:22:36;6.57;;;3.45;;
80850;SDS011;70268;50.292;6.666;2023-09-30T13:25:06;7.45;;;1.95;;
80850;SDS011;70268;50.292;6.666;2023-09-30T13:27:39;5.03;;;2.70;;
80850;SDS011;70268;50.292;6.666;2023-09-30T13:30:09;5.75;;;2.95;;
80850;SDS011;70268;50.292;6.666;2023-09-30T13:32:38;8.30;;;2.40;;
80850;SDS011;70268;50.292;6.666;2023-09-30T13:35:07;6.68;;;3.35;;
80850;SDS011;70268;50.292;6.666;2023-09-30T13:37:36;7.80;;;2.85;;
80850;SDS011;70268;50.292;6.666;2023-09-30T13:40:06;6.28;;;1.90;;
80850;SDS011;70268;50.292;6.666;2023-09-30T13:42:39;5.32;;;2.63;;
80850;SDS011;70268;50.292;6.666;2023-09-30T13:45:11;5.82;;;2.75;;
80850;SDS011;70268;50.292;6.666;2023-09-30T13:47:40;9.77;;;3.33;;
80850;SDS011;70268;50.292;6.666;2023-09-30T13:50:08;6.93;;;2.88;;
80850;SDS011;70268;50.292;6.666;2023-09-30T13:52:37;5.05;;;2.75;;
80850;SDS011;70268;50.292;6.666;2023-09-30T13:55:06;5.18;;;2.38;;
80850;SDS011;70268;50.292;6.666;2023-09-30T13:57:36;6.13;;;2.88;;
80850;SDS011;70268;50.292;6.666;2023-09-30T14:00:05;7.30;;;2.63;;
80850;SDS011;70268;50.292;6.666;2023-09-30T14:02:39;7.00;;;2.28;;
80850;SDS011;70268;50.292;6.666;2023-09-30T14:05:08;4.07;;;2.38;;
80850;SDS011;70268;50.292;6.666;2023-09-30T14:07:38;5.07;;;2.22;;
80850;SDS011;70268;50.292;6.666;2023-09-30T14:10:08;4.45;;;2.72;;
80850;SDS011;70268;50.292;6.666;2023-09-30T14:12:38;4.03;;;2.03;;
80850;SDS011;70268;50.292;6.666;2023-09-30T14:15:08;6.63;;;2.70;;
80850;SDS011;70268;50.292;6.666;2023-09-30T14:17:39;6.50;;;2.53;;
80850;SDS011;70268;50.292;6.666;2023-09-30T14:20:08;6.50;;;2.65;;
80850;SDS011;70268;50.292;6.666;2023-09-30T14:22:39;7.55;;;2.17;;
80850;SDS011;70268;50.292;6.666;2023-09-30T14:25:08;4.88;;;2.67;;
80850;SDS011;70268;50.292;6.666;2023-09-30T14:27:37;4.00;;;2.40;;
80850;SDS011;70268;50.292;6.666;2023-09-30T14:30:07;8.88;;;2.65;;
80850;SDS011;70268;50.292;6.666;2023-09-30T14:32:36;5.15;;;2.28;;
80850;SDS011;70268;50.292;6.666;2023-09-30T14:35:07;4.15;;;2.03;;
80850;SDS011;70268;50.292;6.666;2023-09-30T14:37:36;5.82;;;2.97;;
80850;SDS011;70268;50.292;6.666;2023-09-30T14:40:05;8.50;;;3.15;;
80850;SDS011;70268;50.292;6.666;2023-09-30T14:42:37;5.78;;;2.30;;
80850;SDS011;70268;50.292;6.666;2023-09-30T14:45:07;6.15;;;2.63;;
80850;SDS011;70268;50.292;6.666;2023-09-30T14:47:37;5.78;;;2.90;;
80850;SDS011;70268;50.292;6.666;2023-09-30T14:50:08;5.13;;;2.75;;
80850;SDS011;70268;50.292;6.666;2023-09-30T14:52:37;4.45;;;2.10;;
80850;SDS011;70268;50.292;6.666;2023-09-30T14:55:07;5.47;;;2.60;;
80850;SDS011;70268;50.292;6.666;2023-09-30T14:57:36;7.10;;;2.80;;
80850;SDS011;70268;50.292;6.666;2023-09-30T15:00:06;7.32;;;2.25;;
80850;SDS011;70268;50.292;6.666;2023-09-30T15:02:38;5.25;;;2.58;;
80850;SDS011;70268;50.292;6.666;2023-09-30T15:05:09;5.47;;;2.55;;
80850;SDS011;70268;50.292;6.666;2023-09-30T15:07:37;5.25;;;2.63;;
80850;SDS011;70268;50.292;6.666;2023-09-30T15:10:06;4.82;;;2.67;;
80850;SDS011;70268;50.292;6.666;2023-09-30T15:12:36;4.35;;;2.15;;
80850;SDS011;70268;50.292;6.666;2023-09-30T15:15:05;5.47;;;2.63;;
80850;SDS011;70268;50.292;6.666;2023-09-30T15:17:36;3.33;;;1.80;;
80850;SDS011;70268;50.292;6.666;2023-09-30T15:20:05;5.75;;;2.42;;